Time;durP1;ratioP1;P1;durP2;ratioP2;P2;SDS_P1;SDS_P2;PMS_P1;PMS_P2;Temp;Humidity;BMP_temperature;BMP_pressure;BME280_temperature;BME280_humidity;BME280_pressure;Samples;Min_cycle;Max_cycle;Signal;HPM_P1;HPM_P2
2022/09/02 00:01:51;;;;;;;2.80;2.60;;;13.30;99.90;;;;;;5071504;28;20356;-40
2022/09/02 00:04:21;;;;;;;2.45;2.20;;;13.30;99.90;;;;;;5075822;28;20103;-37
2022/09/02 00:06:48;;;;;;;2.55;2.30;;;13.20;99.90;;;;;;5077413;28;20479;-39
2022/09/02 00:09:17;;;;;;;3.65;2.50;;;13.20;99.90;;;;;;5080035;28;20028;-39
2022/09/02 00:11:45;;;;;;;2.75;2.50;;;13.20;99.90;;;;;;5081384;28;20036;-40
2022/09/02 00:14:15;;;;;;;6.67;3.20;;;13.10;99.90;;;;;;5080457;28;20024;-39
2022/09/02 00:16:50;;;;;;;4.22;2.90;;;13.00;99.90;;;;;;5077426;28;20016;-41
2022/09/02 00:19:19;;;;;;;5.05;3.33;;;13.10;99.90;;;;;;5081583;28;20028;-39
2022/09/02 00:21:45;;;;;;;3.60;2.75;;;13.00;99.90;;;;;;5078480;28;20442;-40
2022/09/02 00:24:10;;;;;;;3.40;2.60;;;13.00;99.90;;;;;;5083378;28;20184;-40
2022/09/02 00:26:37;;;;;;;2.75;2.42;;;13.00;99.90;;;;;;5074935;28;20087;-41
2022/09/02 00:29:03;;;;;;;2.65;2.45;;;12.90;99.90;;;;;;5084346;28;20046;-41
2022/09/02 00:31:29;;;;;;;3.05;2.70;;;12.90;99.90;;;;;;5078325;28;20040;-39
2022/09/02 00:33:55;;;;;;;6.82;2.97;;;12.70;99.90;;;;;;5081187;28;20028;-38
2022/09/02 00:36:21;;;;;;;2.92;2.72;;;12.40;99.90;;;;;;5079739;28;20130;-40
2022/09/02 00:38:47;;;;;;;3.17;2.88;;;12.10;99.90;;;;;;5082300;28;20532;-41
2022/09/02 00:41:12;;;;;;;4.85;2.88;;;12.10;99.90;;;;;;5080113;28;20028;-40
2022/09/02 00:43:49;;;;;;;3.45;3.10;;;12.00;99.90;;;;;;5082380;28;20420;-39
2022/09/02 00:46:17;;;;;;;4.07;2.95;;;12.00;99.90;;;;;;5055437;28;21033;-32
2022/09/02 00:49:15;;;;;;;3.28;2.97;;;12.10;99.90;;;;;;5092743;28;20153;-32
2022/09/02 00:52:04;;;;;;;3.45;3.08;;;12.10;99.90;;;;;;5081116;28;20590;-32
2022/09/02 00:54:33;;;;;;;4.38;3.65;;;12.10;99.90;;;;;;5093112;28;20032;-33
2022/09/02 00:57:02;;;;;;;3.85;3.08;;;12.10;99.90;;;;;;5094488;28;20055;-33
2022/09/02 00:59:53;;;;;;;3.30;3.00;;;12.30;99.90;;;;;;5100133;28;20024;-33
2022/09/02 01:02:22;;;;;;;3.20;2.90;;;12.20;99.90;;;;;;5083403;28;20040;-33
2022/09/02 01:04:48;;;;;;;4.20;3.10;;;12.20;99.90;;;;;;5081844;28;20320;-35
2022/09/02 01:07:14;;;;;;;3.15;2.85;;;12.20;99.90;;;;;;5086169;28;20516;-34
2022/09/02 01:09:40;;;;;;;3.78;3.05;;;12.00;99.90;;;;;;5087393;28;20043;-33
2022/09/02 01:12:07;;;;;;;3.28;3.00;;;12.00;99.90;;;;;;5081700;28;20035;-33
2022/09/02 01:14:34;;;;;;;2.85;2.65;;;11.90;99.90;;;;;;5084333;28;20097;-32
2022/09/02 01:17:01;;;;;;;4.82;3.35;;;11.80;99.90;;;;;;5078135;28;20371;-32
2022/09/02 01:19:37;;;;;;;3.53;3.17;;;11.80;99.90;;;;;;5083103;28;20024;-34
2022/09/02 01:22:14;;;;;;;3.33;3.13;;;11.70;99.90;;;;;;5086444;28;20497;-32
2022/09/02 01:24:39;;;;;;;3.50;3.10;;;11.50;99.90;;;;;;5083445;28;21797;-32
2022/09/02 01:27:05;;;;;;;4.63;3.33;;;11.30;99.90;;;;;;5086209;28;20469;-33
2022/09/02 01:29:31;;;;;;;4.75;3.60;;;11.30;99.90;;;;;;5082568;28;20483;-32
2022/09/02 01:31:57;;;;;;;4.00;3.60;;;11.40;99.90;;;;;;5084170;28;20541;-33
2022/09/02 01:34:23;;;;;;;3.67;3.38;;;11.40;99.90;;;;;;5086435;28;20165;-33
2022/09/02 01:36:49;;;;;;;4.25;3.85;;;11.50;99.90;;;;;;5086370;28;20663;-32
2022/09/02 01:39:15;;;;;;;4.40;4.07;;;11.50;99.90;;;;;;5083897;28;20027;-32
2022/09/02 01:41:41;;;;;;;6.05;3.60;;;11.60;99.90;;;;;;5082668;28;20028;-34
2022/09/02 01:44:07;;;;;;;4.47;3.63;;;11.70;99.90;;;;;;5086648;28;20537;-32
2022/09/02 01:46:35;;;;;;;4.45;3.97;;;11.60;99.90;;;;;;5067962;28;20024;-32
2022/09/02 01:49:00;;;;;;;3.70;3.40;;;11.60;99.90;;;;;;5085396;28;20024;-32
2022/09/02 01:51:26;;;;;;;4.75;4.18;;;11.60;99.90;;;;;;5080998;28;20044;-34
2022/09/02 01:53:51;;;;;;;4.28;3.85;;;11.30;99.90;;;;;;5085044;28;20038;-33
2022/09/02 01:56:17;;;;;;;4.20;3.80;;;11.10;99.90;;;;;;5083703;28;20032;-35
2022/09/02 01:58:43;;;;;;;4.18;3.85;;;11.10;99.90;;;;;;5085453;28;20028;-33
2022/09/02 02:01:09;;;;;;;4.80;4.00;;;11.00;99.90;;;;;;5083599;28;20035;-32
2022/09/02 02:03:36;;;;;;;4.70;4.22;;;10.80;99.90;;;;;;5082138;28;20103;-35
2022/09/02 02:06:08;;;;;;;4.90;4.32;;;10.70;99.90;;;;;;5084591;28;20466;-34
2022/09/02 02:08:34;;;;;;;6.30;4.30;;;10.70;99.90;;;;;;5080766;28;20388;-33
2022/09/02 02:11:00;;;;;;;4.65;4.25;;;10.90;99.90;;;;;;5082510;28;20039;-32
2022/09/02 02:13:25;;;;;;;5.03;4.40;;;11.10;99.90;;;;;;5082875;28;20055;-35
2022/09/02 02:15:51;;;;;;;4.32;3.80;;;11.20;99.90;;;;;;5084914;28;20084;-32
2022/09/02 02:18:17;;;;;;;5.25;4.07;;;11.20;99.90;;;;;;5082082;28;20036;-32
2022/09/02 02:20:43;;;;;;;4.32;3.92;;;11.30;99.90;;;;;;5079681;28;20127;-32
2022/09/02 02:23:09;;;;;;;6.28;4.75;;;11.30;99.90;;;;;;5078932;28;20021;-33
2022/09/02 02:25:34;;;;;;;4.43;4.05;;;11.30;99.90;;;;;;5081622;28;20073;-34
2022/09/02 02:28:00;;;;;;;5.00;4.50;;;11.30;99.90;;;;;;5083181;28;20028;-36
2022/09/02 02:30:26;;;;;;;5.65;4.88;;;11.30;99.90;;;;;;5081528;28;20291;-34
2022/09/02 02:32:53;;;;;;;5.57;4.32;;;11.40;99.90;;;;;;5065277;28;20122;-32
2022/09/02 02:35:19;;;;;;;5.07;4.25;;;11.40;99.90;;;;;;5066072;28;20115;-33
2022/09/02 02:37:48;;;;;;;4.82;4.30;;;11.30;99.90;;;;;;5079532;28;20020;-33
2022/09/02 02:40:14;;;;;;;4.38;3.97;;;11.30;99.90;;;;;;5085144;28;20093;-33
2022/09/02 02:42:40;;;;;;;6.15;4.78;;;11.20;99.90;;;;;;5078738;28;20128;-32
2022/09/02 02:45:11;;;;;;;6.13;4.07;;;11.20;99.90;;;;;;5082293;28;20036;-35
2022/09/02 02:47:39;;;;;;;5.15;4.65;;;11.20;99.90;;;;;;5080088;28;20685;-34
2022/09/02 02:50:07;;;;;;;4.93;4.45;;;11.20;99.90;;;;;;5084500;28;20115;-32
2022/09/02 02:52:33;;;;;;;5.18;4.43;;;11.20;99.90;;;;;;5078204;28;20647;-34
2022/09/02 02:54:58;;;;;;;5.63;4.90;;;11.20;99.90;;;;;;5085572;28;20111;-34
2022/09/02 02:57:24;;;;;;;5.30;4.85;;;11.10;99.90;;;;;;5083618;28;20028;-33
2022/09/02 02:59:49;;;;;;;5.25;4.75;;;11.10;99.90;;;;;;5084810;28;20036;-34
2022/09/02 03:02:16;;;;;;;5.93;4.47;;;11.20;99.90;;;;;;5082730;28;20040;-35
2022/09/02 03:04:41;;;;;;;4.75;4.35;;;11.20;99.90;;;;;;5082230;28;20036;-33
2022/09/02 03:07:08;;;;;;;5.05;4.55;;;11.10;99.90;;;;;;5082025;28;20081;-32
2022/09/02 03:09:34;;;;;;;4.72;4.20;;;11.10;99.90;;;;;;5079566;28;20038;-36
2022/09/02 03:12:00;;;;;;;5.80;5.03;;;11.10;99.90;;;;;;5066104;28;20043;-34
2022/09/02 03:14:26;;;;;;;4.45;4.05;;;11.10;99.90;;;;;;5082919;28;20543;-32
2022/09/02 03:16:52;;;;;;;4.40;4.10;;;11.10;99.90;;;;;;5083667;28;20039;-35
2022/09/02 03:19:17;;;;;;;5.50;3.95;;;11.20;99.90;;;;;;5084291;28;20035;-33
2022/09/02 03:21:43;;;;;;;5.25;4.60;;;11.20;99.90;;;;;;5078692;28;20040;-34
2022/09/02 03:24:10;;;;;;;5.68;4.30;;;11.30;99.90;;;;;;5084853;28;20059;-32
2022/09/02 03:26:36;;;;;;;4.95;4.50;;;11.20;99.90;;;;;;5080395;28;20052;-33
2022/09/02 03:29:01;;;;;;;4.72;4.22;;;11.30;99.90;;;;;;5084841;28;20055;-32
2022/09/02 03:31:27;;;;;;;5.20;4.38;;;11.30;99.90;;;;;;5082881;28;20052;-34
2022/09/02 03:33:53;;;;;;;4.65;4.25;;;11.30;99.90;;;;;;5083787;28;20401;-34
2022/09/02 03:36:25;;;;;;;4.47;3.70;;;11.30;99.90;;;;;;5084089;28;20676;-32
2022/09/02 03:38:50;;;;;;;5.05;4.55;;;11.30;99.90;;;;;;5078187;28;20032;-34
2022/09/02 03:41:16;;;;;;;7.43;4.55;;;11.20;99.90;;;;;;5080106;28;20044;-36
2022/09/02 03:43:42;;;;;;;6.18;4.63;;;11.20;99.90;;;;;;5077741;28;20024;-33
2022/09/02 03:46:08;;;;;;;4.88;4.03;;;11.20;99.90;;;;;;5083584;28;20046;-32
2022/09/02 03:48:34;;;;;;;5.30;3.72;;;11.20;99.90;;;;;;5077692;28;20106;-32
2022/09/02 03:51:01;;;;;;;3.45;3.15;;;11.30;99.90;;;;;;5082662;28;20086;-32
2022/09/02 03:53:27;;;;;;;3.65;3.33;;;11.30;99.90;;;;;;5078227;28;20066;-34
2022/09/02 03:55:53;;;;;;;3.58;3.28;;;11.30;99.90;;;;;;5084257;28;20055;-34
2022/09/02 03:58:20;;;;;;;3.55;3.25;;;11.30;99.90;;;;;;5080816;28;20023;-33
2022/09/02 04:00:50;;;;;;;3.80;3.42;;;11.20;99.90;;;;;;5084357;28;20418;-33
2022/09/02 04:03:16;;;;;;;3.00;2.80;;;11.20;99.90;;;;;;5082439;28;20047;-32
2022/09/02 04:05:46;;;;;;;3.28;3.03;;;11.20;99.90;;;;;;5080691;28;20013;-32
2022/09/02 04:08:12;;;;;;;3.58;3.28;;;11.20;99.90;;;;;;5081545;28;20024;-33
2022/09/02 04:10:38;;;;;;;4.35;3.95;;;11.10;99.90;;;;;;5081849;28;20027;-31
2022/09/02 04:13:03;;;;;;;4.45;3.75;;;11.10;99.90;;;;;;5062122;28;20055;-33
2022/09/02 04:15:29;;;;;;;5.85;4.03;;;10.90;99.90;;;;;;5082552;28;20035;-34
2022/09/02 04:17:55;;;;;;;4.47;4.07;;;10.90;99.90;;;;;;5079382;28;20020;-32
2022/09/02 04:20:21;;;;;;;4.60;4.03;;;10.80;99.90;;;;;;5083448;28;20089;-34
2022/09/02 04:22:47;;;;;;;4.78;4.30;;;10.70;99.90;;;;;;5080548;28;20077;-32
2022/09/02 04:25:13;;;;;;;4.78;4.25;;;10.50;99.90;;;;;;5062037;28;20740;-33
2022/09/02 04:27:39;;;;;;;4.13;3.67;;;10.60;99.90;;;;;;5081587;28;20024;-32
2022/09/02 04:30:06;;;;;;;4.50;3.40;;;10.60;99.90;;;;;;5078854;28;20396;-33
2022/09/02 04:32:33;;;;;;;3.53;3.22;;;10.60;99.90;;;;;;5080629;28;20032;-38
2022/09/02 04:34:58;;;;;;;2.88;2.67;;;10.60;99.90;;;;;;5078414;28;20032;-35
2022/09/02 04:37:26;;;;;;;2.30;2.20;;;10.60;99.90;;;;;;5086142;28;20020;-30
2022/09/02 04:39:52;;;;;;;2.10;2.00;;;10.40;99.90;;;;;;5081873;28;20040;-31
2022/09/02 04:42:18;;;;;;;2.67;2.35;;;10.40;99.90;;;;;;5085390;28;20388;-33
2022/09/02 04:44:45;;;;;;;3.00;2.80;;;10.30;99.90;;;;;;5085347;28;20027;-32
2022/09/02 04:47:11;;;;;;;3.75;3.35;;;10.20;99.90;;;;;;5086653;28;20024;-32
2022/09/02 04:49:37;;;;;;;4.68;3.72;;;10.10;99.90;;;;;;5083633;28;20067;-33
2022/09/02 04:52:03;;;;;;;3.53;3.20;;;10.00;99.90;;;;;;5082954;28;20466;-34
2022/09/02 04:54:29;;;;;;;3.15;2.90;;;10.00;99.90;;;;;;5082853;28;20317;-32
2022/09/02 04:56:55;;;;;;;3.47;3.17;;;10.00;99.90;;;;;;5081938;28;20481;-31
2022/09/02 04:59:20;;;;;;;4.43;3.75;;;10.00;99.90;;;;;;5081139;28;20036;-32
2022/09/02 05:01:46;;;;;;;4.43;4.00;;;9.90;99.90;;;;;;5084632;28;20559;-35
2022/09/02 05:04:12;;;;;;;4.60;4.20;;;9.80;99.90;;;;;;5087063;28;20069;-34
2022/09/02 05:06:38;;;;;;;5.38;4.53;;;9.80;99.90;;;;;;5086195;28;20377;-32
2022/09/02 05:09:07;;;;;;;7.13;4.55;;;9.80;99.90;;;;;;5083541;28;20036;-31
2022/09/02 05:11:34;;;;;;;6.28;5.07;;;9.80;99.90;;;;;;5085376;28;20040;-32
2022/09/02 05:14:03;;;;;;;6.55;4.75;;;9.90;99.90;;;;;;5067978;28;20412;-32
2022/09/02 05:16:39;;;;;;;5.88;5.28;;;10.10;99.90;;;;;;5084486;28;20089;-32
2022/09/02 05:19:08;;;;;;;5.85;5.20;;;10.30;99.90;;;;;;5084050;28;20435;-32
2022/09/02 05:21:37;;;;;;;6.90;5.63;;;10.40;99.90;;;;;;5082543;28;20040;-31
2022/09/02 05:24:03;;;;;;;5.45;4.95;;;10.40;99.90;;;;;;5085574;28;20040;-33
2022/09/02 05:26:28;;;;;;;5.78;5.05;;;10.50;99.90;;;;;;5083271;28;20146;-34
2022/09/02 05:28:54;;;;;;;6.65;5.15;;;10.50;99.90;;;;;;5080962;28;20059;-32
2022/09/02 05:31:20;;;;;;;7.10;5.18;;;10.50;99.90;;;;;;5082422;28;20040;-33
2022/09/02 05:33:47;;;;;;;6.32;5.28;;;10.50;99.90;;;;;;5079067;28;20122;-32
2022/09/02 05:36:17;;;;;;;5.93;5.03;;;10.40;99.90;;;;;;5085406;28;20091;-31
2022/09/02 05:38:44;;;;;;;5.38;4.80;;;10.40;99.90;;;;;;5082429;28;20024;-32
2022/09/02 05:41:17;;;;;;;7.15;5.50;;;10.40;99.90;;;;;;5086415;28;20434;-37
2022/09/02 05:43:43;;;;;;;5.60;5.03;;;10.40;99.90;;;;;;5079630;28;20027;-31
2022/09/02 05:46:13;;;;;;;6.25;5.22;;;10.50;99.90;;;;;;5084440;28;20051;-33
2022/09/02 05:51:23;;;;;;;7.97;6.10;;;10.70;99.90;;;;;;5084297;28;20059;-35
2022/09/02 05:53:53;;;;;;;5.75;5.15;;;10.70;99.90;;;;;;5086226;28;20073;-34
2022/09/02 05:56:20;;;;;;;5.68;5.18;;;10.80;99.90;;;;;;5083550;28;20028;-36
2022/09/02 05:58:46;;;;;;;7.55;5.90;;;10.90;99.90;;;;;;5081536;28;20028;-34
2022/09/02 06:01:14;;;;;;;6.18;5.40;;;11.00;99.90;;;;;;5077021;28;20063;-35
2022/09/02 06:03:40;;;;;;;6.68;5.93;;;11.10;99.90;;;;;;5084395;28;20694;-35
2022/09/02 06:06:06;;;;;;;6.95;5.40;;;11.30;99.90;;;;;;5081543;28;20035;-34
2022/09/02 06:08:33;;;;;;;7.72;5.80;;;11.40;99.90;;;;;;5085703;28;20024;-34
2022/09/02 06:11:02;;;;;;;9.25;6.20;;;11.50;99.90;;;;;;5081022;28;20094;-34
2022/09/02 06:13:29;;;;;;;7.63;5.93;;;11.70;99.90;;;;;;5086068;28;20056;-32
2022/09/02 06:15:56;;;;;;;9.68;5.80;;;12.00;99.90;;;;;;5083880;28;20357;-33
2022/09/02 06:18:22;;;;;;;5.72;5.22;;;12.10;99.90;;;;;;5080612;28;20043;-35
2022/09/02 06:20:49;;;;;;;6.28;5.47;;;12.30;99.90;;;;;;5075122;28;20048;-38
2022/09/02 06:23:15;;;;;;;7.47;6.00;;;12.50;99.90;;;;;;5082462;28;20097;-33
2022/09/02 06:25:44;;;;;;;7.00;5.65;;;12.60;99.90;;;;;;5077145;28;20020;-32
2022/09/02 06:28:10;;;;;;;7.97;5.20;;;12.70;99.90;;;;;;5080421;28;20038;-31
2022/09/02 06:30:38;;;;;;;4.97;4.57;;;12.80;99.90;;;;;;5067803;28;20562;-32
2022/09/02 06:33:04;;;;;;;4.70;4.30;;;12.90;99.90;;;;;;5083369;28;20120;-32
2022/09/02 06:35:35;;;;;;;5.00;4.50;;;13.10;99.90;;;;;;5086792;28;20443;-34
2022/09/02 06:38:01;;;;;;;5.93;4.57;;;13.10;99.90;;;;;;5064558;28;20032;-33
2022/09/02 06:40:27;;;;;;;6.35;4.90;;;13.20;99.90;;;;;;5081163;28;20492;-32
2022/09/02 06:42:53;;;;;;;6.32;4.63;;;13.30;99.90;;;;;;5080284;28;20028;-32
2022/09/02 06:45:19;;;;;;;5.65;4.78;;;13.40;99.90;;;;;;5060367;28;20027;-34
2022/09/02 06:47:45;;;;;;;5.30;4.80;;;13.50;99.90;;;;;;5086371;28;20073;-33
2022/09/02 06:50:11;;;;;;;6.80;4.40;;;13.50;99.90;;;;;;5064851;28;20045;-32
2022/09/02 06:52:38;;;;;;;5.18;4.68;;;13.50;99.90;;;;;;5085004;28;20027;-32
2022/09/02 06:55:04;;;;;;;7.03;4.47;;;13.70;99.90;;;;;;5075893;28;20477;-35
2022/09/02 06:57:30;;;;;;;6.78;5.20;;;13.70;99.90;;;;;;5083134;28;20241;-35
2022/09/02 06:59:55;;;;;;;5.53;4.43;;;13.80;99.90;;;;;;5085266;28;20032;-32
2022/09/02 07:02:21;;;;;;;5.18;4.68;;;13.90;99.90;;;;;;5080541;28;20040;-33
2022/09/02 07:07:33;;;;;;;4.75;4.35;;;14.00;99.90;;;;;;5082185;28;20042;-32
2022/09/02 07:09:58;;;;;;;5.33;4.40;;;14.00;99.90;;;;;;5084502;28;20062;-33
2022/09/02 07:12:26;;;;;;;4.70;4.30;;;14.10;99.90;;;;;;5081089;28;20040;-32
2022/09/02 07:14:52;;;;;;;5.10;4.47;;;14.20;99.90;;;;;;5062702;28;20430;-33
2022/09/02 07:17:20;;;;;;;4.18;3.78;;;14.40;99.90;;;;;;5080286;28;20092;-34
2022/09/02 07:19:47;;;;;;;5.15;3.95;;;14.40;99.90;;;;;;5065644;28;20134;-32
2022/09/02 07:22:13;;;;;;;4.75;4.10;;;14.50;99.90;;;;;;5082753;28;20087;-35
2022/09/02 07:24:39;;;;;;;4.65;4.25;;;14.50;99.90;;;;;;5080269;28;20326;-33
2022/09/02 07:27:05;;;;;;;4.18;3.85;;;14.50;99.90;;;;;;5082495;28;20036;-33
2022/09/02 07:29:31;;;;;;;4.35;3.95;;;14.60;99.90;;;;;;5082513;28;20143;-34
2022/09/02 07:31:57;;;;;;;3.92;3.63;;;14.80;99.90;;;;;;5081601;28;20501;-32
2022/09/02 07:34:23;;;;;;;4.50;4.10;;;14.80;99.90;;;;;;5079915;28;20519;-32
2022/09/02 07:36:49;;;;;;;3.63;3.33;;;14.90;99.90;;;;;;5077618;28;20036;-33
2022/09/02 07:39:15;;;;;;;3.80;3.40;;;15.00;99.90;;;;;;5084931;28;20082;-35
2022/09/02 07:41:45;;;;;;;3.63;3.33;;;15.20;99.90;;;;;;5052529;28;20036;-33
2022/09/02 07:44:11;;;;;;;4.60;3.67;;;15.30;99.90;;;;;;5085457;28;20020;-32
2022/09/02 07:46:38;;;;;;;3.90;3.60;;;15.50;99.90;;;;;;5058776;28;20115;-34
2022/09/02 07:49:07;;;;;;;6.30;3.42;;;15.50;99.90;;;;;;5083100;28;20491;-32
2022/09/02 07:51:35;;;;;;;3.53;3.22;;;15.50;99.90;;;;;;5053657;28;20029;-33
2022/09/02 07:54:04;;;;;;;5.68;3.20;;;15.70;99.90;;;;;;5084826;28;20409;-31
2022/09/02 07:56:30;;;;;;;3.33;3.03;;;16.00;99.90;;;;;;5059054;28;20047;-35
2022/09/02 07:58:56;;;;;;;3.50;3.20;;;16.10;99.90;;;;;;5083259;28;20034;-34
2022/09/02 08:01:22;;;;;;;4.32;3.00;;;16.10;99.90;;;;;;5058425;28;20498;-34
2022/09/02 08:03:48;;;;;;;4.30;3.30;;;16.10;99.90;;;;;;5083595;28;20055;-35
2022/09/02 08:06:15;;;;;;;3.58;2.90;;;16.20;99.90;;;;;;5086231;28;20477;-32
2022/09/02 08:08:41;;;;;;;4.55;2.50;;;16.30;99.90;;;;;;5083809;28;20028;-32
2022/09/02 08:11:08;;;;;;;4.95;2.70;;;16.40;99.90;;;;;;5089993;28;20484;-31
2022/09/02 08:13:35;;;;;;;3.25;2.90;;;16.30;99.90;;;;;;5068759;28;20024;-32
2022/09/02 08:16:02;;;;;;;3.75;2.70;;;16.50;99.90;;;;;;5087564;28;20032;-33
2022/09/02 08:18:28;;;;;;;2.83;2.45;;;16.50;99.90;;;;;;5088165;28;20043;-32
2022/09/02 08:20:55;;;;;;;4.68;2.25;;;16.60;99.90;;;;;;5086825;28;20059;-33
2022/09/02 08:23:20;;;;;;;2.63;2.42;;;16.80;99.90;;;;;;5069528;28;20115;-32
2022/09/02 08:25:46;;;;;;;3.13;2.20;;;16.90;99.90;;;;;;5088251;28;20111;-32
2022/09/02 08:28:13;;;;;;;3.92;2.20;;;17.00;99.90;;;;;;5087759;28;20028;-33
2022/09/02 08:30:39;;;;;;;2.50;2.15;;;16.90;98.30;;;;;;5087060;28;20063;-34
2022/09/02 08:33:04;;;;;;;2.85;2.30;;;17.00;99.40;;;;;;5085308;28;20055;-33
2022/09/02 08:35:30;;;;;;;3.00;2.40;;;17.20;97.30;;;;;;5070181;28;20020;-31
2022/09/02 08:38:00;;;;;;;2.20;2.00;;;17.20;94.50;;;;;;5050847;28;20039;-33
2022/09/02 08:40:38;;;;;;;2.88;1.90;;;17.20;94.90;;;;;;5059565;28;20050;-32
2022/09/02 08:43:24;;;;;;;2.50;2.10;;;17.40;93.50;;;;;;5083507;28;20504;-33
2022/09/02 08:45:53;;;;;;;2.65;1.90;;;17.40;92.30;;;;;;5086356;28;20024;-33
2022/09/02 08:48:36;;;;;;;2.53;1.95;;;17.70;92.80;;;;;;5084732;28;20089;-32
2022/09/02 08:51:10;;;;;;;2.10;1.77;;;17.70;90.30;;;;;;5083026;28;20519;-34
2022/09/02 08:53:49;;;;;;;1.98;1.58;;;17.70;93.30;;;;;;5085800;28;20358;-32
2022/09/02 08:56:17;;;;;;;1.85;1.75;;;17.80;89.90;;;;;;5057634;28;20028;-35
2022/09/02 08:58:46;;;;;;;3.53;2.10;;;17.90;88.90;;;;;;5070250;28;20031;-32
2022/09/02 09:01:30;;;;;;;2.10;1.90;;;17.90;83.80;;;;;;5086505;28;20178;-33
2022/09/02 09:04:20;;;;;;;2.30;1.40;;;17.90;84.40;;;;;;5087159;28;20085;-37
2022/09/02 09:07:23;;;;;;;2.33;1.80;;;18.00;83.40;;;;;;5083119;28;20103;-34
2022/09/02 09:09:49;;;;;;;1.98;1.50;;;18.10;81.60;;;;;;5062951;28;20111;-33
2022/09/02 09:12:34;;;;;;;2.22;1.70;;;18.20;80.20;;;;;;5084763;28;20524;-34
2022/09/02 09:15:20;;;;;;;1.88;1.55;;;18.40;81.00;;;;;;5082128;28;20035;-32
2022/09/02 09:17:58;;;;;;;1.63;1.52;;;18.30;79.80;;;;;;5070076;28;20400;-34
2022/09/02 09:20:30;;;;;;;2.65;1.33;;;18.50;72.90;;;;;;5084649;28;20102;-32
2022/09/02 09:22:59;;;;;;;2.28;1.67;;;18.50;72.50;;;;;;5084690;28;20051;-32
2022/09/02 09:25:28;;;;;;;1.42;1.30;;;18.60;74.50;;;;;;5065618;28;20020;-34
2022/09/02 09:28:01;;;;;;;3.47;1.33;;;18.50;66.50;;;;;;5069825;28;20032;-33
2022/09/02 09:30:28;;;;;;;1.35;1.25;;;18.60;66.50;;;;;;5049426;28;20024;-34
2022/09/02 09:32:56;;;;;;;4.82;1.40;;;18.80;80.60;;;;;;5083589;28;20028;-33
2022/09/02 09:35:23;;;;;;;1.88;1.60;;;19.00;66.80;;;;;;5080537;28;20051;-35
2022/09/02 09:37:51;;;;;;;2.53;1.30;;;19.00;66.10;;;;;;5067276;28;20063;-33
2022/09/02 09:40:17;;;;;;;1.30;1.23;;;18.90;66.90;;;;;;5062168;28;20040;-32
2022/09/02 09:42:44;;;;;;;5.18;1.50;;;19.10;68.60;;;;;;5086084;28;20141;-33
2022/09/02 09:45:19;;;;;;;2.00;1.50;;;19.10;64.80;;;;;;5084437;28;20032;-34
2022/09/02 09:48:06;;;;;;;1.45;1.35;;;19.40;63.30;;;;;;5085755;28;20385;-32
2022/09/02 09:50:32;;;;;;;1.90;1.30;;;19.30;61.70;;;;;;5087149;28;20016;-31
2022/09/02 09:53:34;;;;;;;1.55;1.17;;;19.40;59.30;;;;;;5085473;28;20035;-33
2022/09/02 09:56:21;;;;;;;2.47;1.30;;;19.50;64.80;;;;;;5017827;28;20081;-32
2022/09/02 09:58:48;;;;;;;4.93;1.30;;;19.40;59.60;;;;;;5082049;28;20040;-33
2022/09/02 10:01:28;;;;;;;1.52;1.42;;;19.60;61.60;;;;;;5080994;28;20024;-34
2022/09/02 10:04:03;;;;;;;2.75;1.30;;;19.60;63.50;;;;;;5085700;28;20035;-31
2022/09/02 10:06:29;;;;;;;1.27;1.20;;;19.70;59.60;;;;;;5087556;28;20084;-31
2022/09/02 10:08:58;;;;;;;1.20;1.10;;;19.60;58.00;;;;;;5084833;28;20020;-33
2022/09/02 10:11:32;;;;;;;1.23;1.20;;;19.60;60.30;;;;;;5080130;28;20450;-34
2022/09/02 10:14:03;;;;;;;1.30;1.20;;;19.80;60.30;;;;;;5080912;28;20039;-34
2022/09/02 10:16:56;;;;;;;1.58;1.20;;;19.70;60.70;;;;;;5080595;28;20028;-32
2022/09/02 10:19:33;;;;;;;2.58;1.58;;;19.80;59.60;;;;;;5081825;28;20028;-31
2022/09/02 10:22:20;;;;;;;2.35;1.10;;;19.80;59.10;;;;;;5082432;28;20072;-33
2022/09/02 10:24:57;;;;;;;1.58;1.23;;;19.90;56.70;;;;;;5066605;28;20023;-32
2022/09/02 10:27:35;;;;;;;1.25;1.10;;;20.00;57.50;;;;;;5080234;28;20566;-31
2022/09/02 10:30:19;;;;;;;2.15;1.20;;;20.20;57.30;;;;;;5085535;28;20119;-33
2022/09/02 10:33:06;;;;;;;1.20;1.10;;;20.40;56.90;;;;;;5084650;28;20039;-32
2022/09/02 10:35:44;;;;;;;1.00;1.00;;;20.30;57.70;;;;;;5079915;28;20561;-33
2022/09/02 10:38:36;;;;;;;2.13;1.40;;;20.20;56.80;;;;;;5068248;28;20059;-32
2022/09/02 10:41:34;;;;;;;1.85;1.50;;;20.10;55.60;;;;;;5086257;28;20032;-36
2022/09/02 10:44:11;;;;;;;1.70;1.20;;;19.90;57.70;;;;;;5075630;28;20552;-34
2022/09/02 10:46:46;;;;;;;1.52;1.02;;;19.80;55.60;;;;;;5081456;28;20445;-32
2022/09/02 10:49:46;;;;;;;1.30;1.20;;;20.00;53.80;;;;;;5086409;28;20496;-33
2022/09/02 10:52:22;;;;;;;1.08;1.02;;;20.10;54.70;;;;;;5033100;28;20535;-32
2022/09/02 10:55:08;;;;;;;2.35;1.40;;;20.20;54.20;;;;;;5085626;28;20030;-31
2022/09/02 10:58:03;;;;;;;3.30;1.20;;;20.00;52.30;;;;;;5080310;28;20016;-34
2022/09/02 11:00:31;;;;;;;3.03;1.20;;;20.00;53.80;;;;;;5065202;28;20040;-32
2022/09/02 11:03:25;;;;;;;1.20;1.20;;;20.10;55.90;;;;;;5084717;28;20504;-31
2022/09/02 11:05:57;;;;;;;1.98;1.30;;;20.10;54.20;;;;;;5072387;28;20031;-36
2022/09/02 11:08:40;;;;;;;1.35;1.25;;;20.00;54.80;;;;;;5067035;28;20098;-32
2022/09/02 11:11:20;;;;;;;1.48;1.15;;;20.30;50.90;;;;;;5085302;28;20066;-33
2022/09/02 11:13:51;;;;;;;1.90;1.15;;;20.20;52.70;;;;;;5084542;28;20500;-33
2022/09/02 11:16:27;;;;;;;1.80;1.10;;;20.10;50.10;;;;;;5082870;28;20395;-32
2022/09/02 11:19:15;;;;;;;2.92;1.10;;;20.20;56.00;;;;;;5090645;28;20031;-32
2022/09/02 11:21:43;;;;;;;;;;;20.40;56.50;;;;;;5087634;28;20036;-34
2022/09/02 11:24:18;;;;;;;2.35;1.20;;;20.60;53.80;;;;;;5084697;28;20754;-35
2022/09/02 11:27:10;;;;;;;2.45;1.15;;;20.50;52.30;;;;;;5083510;28;20115;-35
2022/09/02 11:29:59;;;;;;;1.25;1.17;;;20.50;52.20;;;;;;5083266;28;20562;-33
2022/09/02 11:32:36;;;;;;;2.35;1.23;;;20.50;50.80;;;;;;5059074;28;20032;-33
2022/09/02 11:35:06;;;;;;;1.20;1.10;;;20.60;52.30;;;;;;5080680;28;20402;-32
2022/09/02 11:37:47;;;;;;;1.10;1.10;;;20.60;52.30;;;;;;5081823;28;20090;-33
2022/09/02 11:40:37;;;;;;;1.73;1.30;;;20.60;49.40;;;;;;5085173;28;20062;-34
2022/09/02 11:43:11;;;;;;;1.20;1.20;;;20.50;50.30;;;;;;5075741;28;20050;-32
2022/09/02 11:45:55;;;;;;;1.30;1.20;;;20.60;51.70;;;;;;5082716;28;20066;-31
2022/09/02 11:48:40;;;;;;;2.55;1.10;;;20.60;50.10;;;;;;5064454;28;20035;-32
2022/09/02 11:51:05;;;;;;;1.20;1.10;;;20.60;49.90;;;;;;5085570;28;20410;-32
2022/09/02 11:53:34;;;;;;;1.48;1.38;;;20.60;50.80;;;;;;5080887;28;20016;-35
2022/09/02 11:56:14;;;;;;;1.30;1.20;;;20.70;50.20;;;;;;5080144;28;20081;-32
2022/09/02 11:58:42;;;;;;;1.58;1.00;;;20.70;48.80;;;;;;5079742;28;20032;-34
2022/09/02 12:01:27;;;;;;;1.67;1.15;;;20.50;51.70;;;;;;5081596;28;20481;-34
2022/09/02 12:03:59;;;;;;;1.77;1.20;;;20.60;50.80;;;;;;5079941;28;20013;-33
2022/09/02 12:06:25;;;;;;;1.50;1.40;;;20.40;52.50;;;;;;5082662;28;20027;-32
2022/09/02 12:08:52;;;;;;;1.27;1.15;;;20.50;50.30;;;;;;5083481;28;20028;-34
2022/09/02 12:11:44;;;;;;;1.40;1.30;;;20.40;49.20;;;;;;5081547;28;20029;-33
2022/09/02 12:14:41;;;;;;;1.98;1.10;;;20.40;53.20;;;;;;5082926;28;20309;-35
2022/09/02 12:17:08;;;;;;;2.28;1.10;;;20.60;57.10;;;;;;5081181;28;20036;-32
2022/09/02 12:19:41;;;;;;;1.33;1.20;;;20.60;49.20;;;;;;5083742;28;20129;-35
2022/09/02 12:22:15;;;;;;;1.10;1.10;;;20.50;51.50;;;;;;5081703;28;20512;-32
2022/09/02 12:25:00;;;;;;;1.27;1.17;;;20.50;51.10;;;;;;5080839;28;20052;-32
2022/09/02 12:27:35;;;;;;;1.25;1.15;;;20.60;53.30;;;;;;5077400;28;20028;-32
2022/09/02 12:30:04;;;;;;;1.13;1.10;;;20.60;51.60;;;;;;5082137;28;20028;-33
2022/09/02 12:32:45;;;;;;;1.65;1.55;;;20.50;51.30;;;;;;5081837;28;20511;-32
2022/09/02 12:35:30;;;;;;;1.40;1.30;;;20.70;53.20;;;;;;5083023;28;20476;-32
2022/09/02 12:38:20;;;;;;;1.30;1.20;;;20.70;50.40;;;;;;5079332;28;20024;-35
2022/09/02 12:41:04;;;;;;;1.10;1.10;;;20.60;50.00;;;;;;5079818;28;20024;-34
2022/09/02 12:44:13;;;;;;;1.30;1.20;;;20.70;51.90;;;;;;5083147;28;20017;-33
2022/09/02 12:46:41;;;;;;;1.30;1.20;;;20.70;51.30;;;;;;5077563;28;20016;-32
2022/09/02 12:49:36;;;;;;;1.23;1.10;;;20.80;49.90;;;;;;5079509;28;20032;-33
2022/09/02 12:52:10;;;;;;;1.45;1.35;;;20.70;50.60;;;;;;5081812;28;20479;-32
2022/09/02 12:54:42;;;;;;;1.85;1.20;;;20.80;52.00;;;;;;5085832;28;20035;-32
2022/09/02 12:57:09;;;;;;;1.30;1.20;;;20.80;52.30;;;;;;5081205;28;20393;-34
2022/09/02 12:59:37;;;;;;;1.10;1.00;;;20.90;50.30;;;;;;5087889;28;20108;-32
2022/09/02 13:02:23;;;;;;;1.35;1.25;;;20.90;50.00;;;;;;5085527;28;20070;-33
2022/09/02 13:05:14;;;;;;;1.75;1.20;;;20.90;53.80;;;;;;5083636;28;20031;-31
2022/09/02 13:08:01;;;;;;;1.50;1.40;;;21.20;51.50;;;;;;5084448;28;20035;-33
2022/09/02 13:10:36;;;;;;;1.58;0.95;;;20.90;48.30;;;;;;5083666;28;20037;-31
2022/09/02 13:13:08;;;;;;;1.10;1.10;;;21.00;52.70;;;;;;5082566;28;20058;-35